createdAt,value
2018-05-19T00:01:29.519Z,12.77
2018-05-19T00:03:57.719Z,12.70
2018-05-19T00:06:25.167Z,13.20
2018-05-19T00:08:52.622Z,12.50
2018-05-19T00:11:20.076Z,13.37
2018-05-19T00:13:47.534Z,12.63
2018-05-19T00:16:14.978Z,12.57
2018-05-19T00:18:42.426Z,13.10
2018-05-19T00:21:10.635Z,13.97
2018-05-19T00:23:38.079Z,13.83
2018-05-19T00:26:05.523Z,12.20
2018-05-19T00:28:32.966Z,12.40
2018-05-19T00:31:00.411Z,14.37
2018-05-19T00:33:27.863Z,13.00
2018-05-19T00:35:55.299Z,13.40
2018-05-19T00:38:22.760Z,15.00
2018-05-19T00:40:50.198Z,13.07
2018-05-19T00:43:17.650Z,12.67
2018-05-19T00:45:45.091Z,12.60
2018-05-19T00:48:12.548Z,14.57
2018-05-19T00:50:39.990Z,14.60
2018-05-19T00:53:07.434Z,14.70
2018-05-19T00:55:34.879Z,12.53
2018-05-19T00:58:02.334Z,13.43
2018-05-19T01:00:30.554Z,13.60
2018-05-19T01:02:58.013Z,13.73
2018-05-19T01:05:25.491Z,14.70
2018-05-19T01:07:53.694Z,14.30
2018-05-19T01:10:21.134Z,16.93
2018-05-19T01:12:48.575Z,14.63
2018-05-19T01:15:16.022Z,14.50
2018-05-19T01:17:43.466Z,12.80
2018-05-19T01:20:11.012Z,16.20
2018-05-19T01:22:38.441Z,15.70
2018-05-19T01:25:05.887Z,14.63
2018-05-19T01:27:33.334Z,14.10
2018-05-19T01:30:00.787Z,13.90
2018-05-19T01:32:28.242Z,13.77
2018-05-19T01:34:56.539Z,13.30
2018-05-19T01:37:24.729Z,12.97
2018-05-19T01:39:52.174Z,15.03
2018-05-19T01:42:19.616Z,13.27
2018-05-19T01:44:47.068Z,13.77
2018-05-19T01:47:14.511Z,12.73
2018-05-19T01:49:41.978Z,13.37
2018-05-19T01:52:09.422Z,12.33
2018-05-19T01:54:36.895Z,15.53
2018-05-19T01:57:05.094Z,13.77
2018-05-19T01:59:32.533Z,13.83
2018-05-19T02:01:59.970Z,13.30
2018-05-19T02:04:27.423Z,14.63
2018-05-19T02:06:54.854Z,14.30
2018-05-19T02:09:22.315Z,12.80
2018-05-19T02:11:49.759Z,13.93
2018-05-19T02:14:17.199Z,12.57
2018-05-19T02:16:44.638Z,13.60
2018-05-19T02:19:12.085Z,14.07
2018-05-19T02:21:39.527Z,13.90
2018-05-19T02:24:06.975Z,14.30
2018-05-19T02:26:34.428Z,15.10
2018-05-19T02:29:01.887Z,15.00
2018-05-19T02:31:29.331Z,15.50
2018-05-19T02:33:56.804Z,15.70
2018-05-19T02:36:24.250Z,14.90
2018-05-19T02:38:51.695Z,16.53
2018-05-19T02:41:19.134Z,15.23
2018-05-19T02:43:46.590Z,14.27
2018-05-19T02:46:14.026Z,14.70
2018-05-19T02:48:41.466Z,14.10
2018-05-19T02:51:08.917Z,15.00
2018-05-19T02:53:36.940Z,14.93
2018-05-19T02:56:04.384Z,15.63
2018-05-19T02:58:32.594Z,17.03
2018-05-19T03:01:00.054Z,15.17
2018-05-19T03:03:27.526Z,16.10
2018-05-19T03:05:55.751Z,15.67
2018-05-19T03:08:23.199Z,15.23
2018-05-19T03:10:50.647Z,14.80
2018-05-19T03:13:18.087Z,15.30
2018-05-19T03:15:45.570Z,15.10
2018-05-19T03:18:13.770Z,15.23
2018-05-19T03:20:41.230Z,15.07
2018-05-19T03:23:08.679Z,16.20
2018-05-19T03:25:36.114Z,16.37
2018-05-19T03:28:03.558Z,16.27
2018-05-19T03:30:31.017Z,15.37
2018-05-19T03:32:58.545Z,15.87
2018-05-19T03:35:25.906Z,16.30
2018-05-19T03:37:53.354Z,16.30
2018-05-19T03:40:20.802Z,16.10
2018-05-19T03:42:48.240Z,17.07
2018-05-19T03:45:15.686Z,16.47
2018-05-19T03:47:43.130Z,17.67
2018-05-19T03:50:10.582Z,17.97
2018-05-19T03:52:38.794Z,19.40
2018-05-19T03:55:06.240Z,19.80
2018-05-19T03:57:45.427Z,19.60
2018-05-19T04:00:24.847Z,18.80
2018-05-19T04:02:52.297Z,19.42
2018-05-19T04:05:19.761Z,18.47
2018-05-19T04:07:47.201Z,19.17
2018-05-19T04:10:14.647Z,19.13
2018-05-19T04:12:42.089Z,20.03
2018-05-19T04:15:09.541Z,19.60
2018-05-19T04:17:37.764Z,18.77
2018-05-19T04:20:05.222Z,19.30
2018-05-19T04:22:32.666Z,18.60
2018-05-19T04:25:00.113Z,19.73
2018-05-19T04:27:27.558Z,18.87
2018-05-19T04:29:55.011Z,20.50
2018-05-19T04:32:22.455Z,19.50
2018-05-19T04:34:49.935Z,19.57
2018-05-19T04:37:17.364Z,19.80
2018-05-19T04:39:44.802Z,18.90
2018-05-19T04:42:12.248Z,20.50
2018-05-19T04:44:39.693Z,20.00
2018-05-19T04:47:07.134Z,17.93
2018-05-19T04:49:34.585Z,18.60
2018-05-19T04:52:02.025Z,20.23
2018-05-19T04:54:29.466Z,17.77
2018-05-19T04:56:56.980Z,19.03
2018-05-19T04:59:24.353Z,17.30
2018-05-19T05:01:51.955Z,19.93
2018-05-19T05:04:19.388Z,18.87
2018-05-19T05:06:46.833Z,18.27
2018-05-19T05:09:14.281Z,19.13
2018-05-19T05:11:41.735Z,18.63
2018-05-19T05:14:09.177Z,17.27
2018-05-19T05:16:36.632Z,23.20
2018-05-19T05:19:04.069Z,16.63
2018-05-19T05:21:31.522Z,16.53
2018-05-19T05:23:58.972Z,16.70
2018-05-19T05:26:26.427Z,16.67
2018-05-19T05:28:53.865Z,14.57
2018-05-19T05:31:21.315Z,16.33
2018-05-19T05:33:48.758Z,16.50
2018-05-19T05:36:16.220Z,17.53
2018-05-19T05:38:43.645Z,16.63
2018-05-19T05:41:11.876Z,15.57
2018-05-19T05:43:39.310Z,17.20
2018-05-19T05:46:06.763Z,15.60
2018-05-19T05:48:34.209Z,16.03
2018-05-19T05:51:01.656Z,17.80
2018-05-19T05:53:29.104Z,15.40
2018-05-19T05:55:56.541Z,16.17
2018-05-19T05:58:23.991Z,15.37
2018-05-19T06:00:51.521Z,15.57
2018-05-19T06:03:18.972Z,16.60
2018-05-19T06:05:46.422Z,15.13
2018-05-19T06:08:13.866Z,15.40
2018-05-19T06:10:41.324Z,15.27
2018-05-19T06:13:09.534Z,16.77
2018-05-19T06:15:36.986Z,18.17
2018-05-19T06:18:05.206Z,26.70
2018-05-19T06:20:32.649Z,15.87
2018-05-19T06:23:00.106Z,15.17
2018-05-19T06:25:27.567Z,15.80
2018-05-19T06:27:55.019Z,15.00
2018-05-19T06:30:22.470Z,17.57
2018-05-19T06:32:49.946Z,15.70
2018-05-19T06:35:17.401Z,14.63
2018-05-19T06:37:45.625Z,15.80
2018-05-19T06:40:13.058Z,14.43
2018-05-19T06:42:40.512Z,16.30
2018-05-19T06:45:08.036Z,14.83
2018-05-19T06:47:35.529Z,15.20
2018-05-19T06:50:03.725Z,17.97
2018-05-19T06:52:31.183Z,15.00
2018-05-19T06:54:58.607Z,18.03
2018-05-19T06:57:26.054Z,15.03
2018-05-19T06:59:53.501Z,15.90
2018-05-19T07:02:20.943Z,14.70
2018-05-19T07:04:48.378Z,15.03
2018-05-19T07:07:15.818Z,14.90
2018-05-19T07:09:43.258Z,15.27
2018-05-19T07:12:10.725Z,15.30
2018-05-19T07:14:38.157Z,15.40
2018-05-19T07:17:05.618Z,14.73
2018-05-19T07:19:33.053Z,15.33
2018-05-19T07:22:00.497Z,15.73
2018-05-19T07:24:27.946Z,16.43
2018-05-19T07:26:55.401Z,16.50
2018-05-19T07:29:22.830Z,14.97
2018-05-19T07:31:50.282Z,16.07
2018-05-19T07:34:17.735Z,16.10
2018-05-19T07:36:45.169Z,15.83
2018-05-19T07:39:12.609Z,14.90
2018-05-19T07:41:40.059Z,15.90
2018-05-19T07:44:07.579Z,16.63
2018-05-19T07:46:35.036Z,14.23
2018-05-19T07:49:02.463Z,15.50
2018-05-19T07:51:29.910Z,14.73
2018-05-19T07:53:57.370Z,14.90
2018-05-19T07:56:24.818Z,15.33
2018-05-19T07:58:52.275Z,15.20
2018-05-19T08:01:19.722Z,14.53
2018-05-19T08:03:48.042Z,16.00
2018-05-19T08:06:15.443Z,15.57
2018-05-19T08:08:43.652Z,15.07
2018-05-19T08:11:11.091Z,17.00
2018-05-19T08:13:38.577Z,16.40
2018-05-19T08:16:06.818Z,15.83
2018-05-19T08:18:34.301Z,15.40
2018-05-19T08:21:01.774Z,16.57
2018-05-19T08:23:29.236Z,16.20
2018-05-19T08:25:56.686Z,16.77
2018-05-19T08:28:24.206Z,20.00
2018-05-19T08:30:51.676Z,14.50
2018-05-19T08:33:19.151Z,14.43
2018-05-19T08:35:47.351Z,14.60
2018-05-19T08:38:14.794Z,14.20
2018-05-19T08:40:42.225Z,12.20
2018-05-19T08:43:09.682Z,12.90
2018-05-19T08:45:37.129Z,13.77
2018-05-19T08:48:04.570Z,13.70
2018-05-19T08:50:32.047Z,14.23
2018-05-19T08:52:59.470Z,14.87
2018-05-19T08:55:26.910Z,13.63
2018-05-19T08:57:54.361Z,13.83
2018-05-19T09:00:21.812Z,13.67
2018-05-19T09:02:49.257Z,14.07
2018-05-19T09:05:17.684Z,13.70
2018-05-19T09:07:45.152Z,18.67
2018-05-19T09:10:12.619Z,14.83
2018-05-19T09:12:40.099Z,14.33
2018-05-19T09:15:08.282Z,15.13
2018-05-19T09:17:35.742Z,18.53
2018-05-19T09:20:03.207Z,13.63
2018-05-19T09:22:30.696Z,13.07
2018-05-19T09:24:58.121Z,14.90
2018-05-19T09:27:25.566Z,14.90
2018-05-19T09:29:53.083Z,15.00
2018-05-19T09:32:20.502Z,13.07
2018-05-19T09:34:47.945Z,13.90
2018-05-19T09:37:15.390Z,17.33
2018-05-19T09:39:42.836Z,15.10
2018-05-19T09:42:11.046Z,14.47
2018-05-19T09:44:38.481Z,14.63
2018-05-19T09:47:05.956Z,14.20
2018-05-19T09:49:33.395Z,14.80
2018-05-19T09:52:00.870Z,13.63
2018-05-19T09:54:28.291Z,13.73
2018-05-19T09:56:55.756Z,15.47
2018-05-19T09:59:23.215Z,14.90
2018-05-19T10:01:50.661Z,14.67
2018-05-19T10:04:18.863Z,14.20
2018-05-19T10:06:46.303Z,16.50
2018-05-19T10:09:13.806Z,15.20
2018-05-19T10:11:42.220Z,14.87
2018-05-19T10:14:09.678Z,14.10
2018-05-19T10:16:37.210Z,16.83
2018-05-19T10:19:05.427Z,15.37
2018-05-19T10:21:33.657Z,15.00
2018-05-19T10:24:01.154Z,15.37
2018-05-19T10:26:28.594Z,14.03
2018-05-19T10:28:56.044Z,14.73
2018-05-19T10:31:23.499Z,14.90
2018-05-19T10:33:50.994Z,16.93
2018-05-19T10:36:19.222Z,14.93
2018-05-19T10:38:46.707Z,15.30
2018-05-19T10:41:14.947Z,15.23
2018-05-19T10:43:42.404Z,15.57
2018-05-19T10:46:09.839Z,16.87
2018-05-19T10:48:37.298Z,16.50
2018-05-19T10:51:05.506Z,17.20
2018-05-19T10:53:32.994Z,17.77
2018-05-19T10:56:00.460Z,16.50
2018-05-19T10:58:27.907Z,17.23
2018-05-19T11:00:55.346Z,17.03
2018-05-19T11:03:22.794Z,16.50
2018-05-19T11:05:50.367Z,15.80
2018-05-19T11:08:17.838Z,18.23
2018-05-19T11:10:45.270Z,17.00
2018-05-19T11:13:12.723Z,17.40
2018-05-19T11:15:40.169Z,18.03
2018-05-19T11:18:07.623Z,18.67
2018-05-19T11:20:35.071Z,17.30
2018-05-19T11:23:02.529Z,15.40
2018-05-19T11:25:30.738Z,15.20
2018-05-19T11:27:58.216Z,16.37
2018-05-19T11:30:25.638Z,16.63
2018-05-19T11:32:53.095Z,15.50
2018-05-19T11:35:20.536Z,14.90
2018-05-19T11:37:47.995Z,19.40
2018-05-19T11:40:15.429Z,18.03
2018-05-19T11:42:43.745Z,15.23
2018-05-19T11:45:11.189Z,18.80
2018-05-19T11:47:38.644Z,14.47
2018-05-19T11:50:06.142Z,16.83
2018-05-19T11:52:33.613Z,15.00
2018-05-19T11:55:01.054Z,13.90
2018-05-19T11:57:28.502Z,14.90
2018-05-19T11:59:55.941Z,14.77
2018-05-19T12:02:24.294Z,13.30
2018-05-19T12:04:51.713Z,13.93
2018-05-19T12:07:19.184Z,18.50
2018-05-19T12:09:46.626Z,14.97
2018-05-19T12:12:14.181Z,15.83
2018-05-19T12:14:41.531Z,15.33
2018-05-19T12:17:08.961Z,16.50
2018-05-19T12:19:36.423Z,16.97
2018-05-19T12:22:03.864Z,16.10
2018-05-19T12:24:31.319Z,17.10
2018-05-19T12:26:58.764Z,15.23
2018-05-19T12:29:26.228Z,17.10
2018-05-19T12:31:53.675Z,16.30
2018-05-19T12:34:21.976Z,16.10
2018-05-19T12:36:49.423Z,16.40
2018-05-19T12:39:16.882Z,15.30
2018-05-19T12:41:44.338Z,16.57
2018-05-19T12:44:11.790Z,15.37
2018-05-19T12:46:39.238Z,16.40
2018-05-19T12:49:07.461Z,17.43
2018-05-19T12:51:34.984Z,17.37
2018-05-19T12:54:02.442Z,15.50
2018-05-19T12:56:29.998Z,15.20
2018-05-19T12:58:57.469Z,16.57
2018-05-19T13:01:24.933Z,14.77
2018-05-19T13:03:53.150Z,13.43
2018-05-19T13:06:21.365Z,14.53
2018-05-19T13:08:48.812Z,14.47
2018-05-19T13:11:16.275Z,14.50
2018-05-19T13:13:43.780Z,15.63
2018-05-19T13:16:12.010Z,13.83
2018-05-19T13:18:39.470Z,14.40
2018-05-19T13:21:06.903Z,13.60
2018-05-19T13:23:34.348Z,14.50
2018-05-19T13:26:01.778Z,13.73
2018-05-19T13:28:29.234Z,13.43
2018-05-19T13:30:56.716Z,13.57
2018-05-19T13:33:24.243Z,14.53
2018-05-19T13:35:51.667Z,15.43
2018-05-19T13:38:19.120Z,15.30
2018-05-19T13:40:46.565Z,12.27
2018-05-19T13:43:14.049Z,13.40
2018-05-19T13:45:41.509Z,12.53
2018-05-19T13:48:08.975Z,13.37
2018-05-19T13:50:36.417Z,13.87
2018-05-19T13:53:03.882Z,12.80
2018-05-19T13:55:32.091Z,12.60
2018-05-19T13:57:59.542Z,14.17
2018-05-19T14:00:26.974Z,12.37
2018-05-19T14:02:54.433Z,12.47
2018-05-19T14:05:21.930Z,12.77
2018-05-19T14:07:49.349Z,11.40
2018-05-19T14:10:16.824Z,12.50
2018-05-19T14:12:44.274Z,13.17
2018-05-19T14:15:11.718Z,12.77
2018-05-19T14:17:39.179Z,11.93
2018-05-19T14:20:06.626Z,12.40
2018-05-19T14:22:34.067Z,11.50
2018-05-19T14:25:01.521Z,12.00
2018-05-19T14:27:28.954Z,16.10
2018-05-19T14:29:56.394Z,15.73
2018-05-19T14:32:23.867Z,12.23
2018-05-19T14:34:51.316Z,12.80
2018-05-19T14:37:18.741Z,13.57
2018-05-19T14:39:46.190Z,12.83
2018-05-19T14:42:13.635Z,13.40
2018-05-19T14:44:41.090Z,13.10
2018-05-19T14:47:08.534Z,10.80
2018-05-19T14:49:36.750Z,12.80
2018-05-19T14:52:04.199Z,10.40
2018-05-19T14:54:31.661Z,12.30
2018-05-19T14:56:59.101Z,12.17
2018-05-19T14:59:26.556Z,13.30
2018-05-19T15:01:53.993Z,12.97
2018-05-19T15:04:21.511Z,14.03
2018-05-19T15:06:49.660Z,12.83
2018-05-19T15:09:17.125Z,14.10
2018-05-19T15:11:45.252Z,14.50
2018-05-19T15:14:12.707Z,13.43
2018-05-19T15:16:40.142Z,12.17
2018-05-19T15:19:07.614Z,12.30
2018-05-19T15:21:35.069Z,12.17
2018-05-19T15:24:02.506Z,13.17
2018-05-19T15:26:29.959Z,11.90
2018-05-19T15:28:57.395Z,12.50
2018-05-19T15:31:24.851Z,12.50
2018-05-19T15:33:52.306Z,11.60
2018-05-19T15:36:20.542Z,12.30
2018-05-19T15:38:47.996Z,11.80
2018-05-19T15:41:15.423Z,10.67
2018-05-19T15:43:42.870Z,12.13
2018-05-19T15:46:10.319Z,13.93
2018-05-19T15:48:38.561Z,12.60
2018-05-19T15:51:06.024Z,14.33
2018-05-19T15:53:33.479Z,18.10
2018-05-19T15:56:01.714Z,17.77
2018-05-19T15:58:29.138Z,17.60
2018-05-19T16:00:56.603Z,14.57
2018-05-19T16:03:24.055Z,15.50
2018-05-19T16:05:51.502Z,15.03
2018-05-19T16:08:19.735Z,14.73
2018-05-19T16:10:47.198Z,15.27
2018-05-19T16:13:14.664Z,11.77
2018-05-19T16:15:42.883Z,14.27
2018-05-19T16:18:10.335Z,13.47
2018-05-19T16:20:37.777Z,13.63
2018-05-19T16:23:05.229Z,13.63
2018-05-19T16:25:32.691Z,14.70
2018-05-19T16:28:00.918Z,15.63
2018-05-19T16:30:28.386Z,12.63
2018-05-19T16:32:55.857Z,12.17
2018-05-19T16:35:23.322Z,14.43
2018-05-19T16:37:50.791Z,11.37
2018-05-19T16:40:18.249Z,11.40
2018-05-19T16:42:45.705Z,10.50
2018-05-19T16:45:13.149Z,10.77
2018-05-19T16:47:41.355Z,9.97
2018-05-19T16:50:08.797Z,10.97
2018-05-19T16:52:36.257Z,10.40
2018-05-19T16:55:03.715Z,10.43
2018-05-19T16:57:31.166Z,13.30
2018-05-19T16:59:58.617Z,12.03
2018-05-19T17:02:26.092Z,13.90
2018-05-19T17:04:53.547Z,14.30
2018-05-19T17:07:21.023Z,13.43
2018-05-19T17:09:48.466Z,15.70
2018-05-19T17:12:15.977Z,15.63
2018-05-19T17:14:43.366Z,15.93
2018-05-19T17:17:10.827Z,14.43
2018-05-19T17:19:38.277Z,14.67
2018-05-19T17:22:06.625Z,15.07
2018-05-19T17:24:34.029Z,14.87
2018-05-19T17:27:01.467Z,15.87
2018-05-19T17:29:28.922Z,12.47
2018-05-19T17:31:56.366Z,14.07
2018-05-19T17:34:23.840Z,16.50
2018-05-19T17:36:51.348Z,13.43
2018-05-19T17:39:18.844Z,14.90
2018-05-19T17:41:46.285Z,15.90
2018-05-19T17:44:14.487Z,16.17
2018-05-19T17:46:41.942Z,16.97
2018-05-19T17:49:10.285Z,15.20
2018-05-19T17:51:37.809Z,16.67
2018-05-19T17:54:05.212Z,18.53
2018-05-19T17:56:32.680Z,16.50
2018-05-19T17:59:00.125Z,15.93
2018-05-19T18:01:28.335Z,16.03
2018-05-19T18:03:55.798Z,17.37
2018-05-19T18:06:23.254Z,17.87
2018-05-19T18:08:50.693Z,17.17
2018-05-19T18:11:18.206Z,18.90
2018-05-19T18:13:46.374Z,16.73
2018-05-19T18:16:13.829Z,17.13
2018-05-19T18:18:41.272Z,15.03
2018-05-19T18:21:08.738Z,14.57
2018-05-19T18:23:37.783Z,17.30
2018-05-19T18:26:05.235Z,16.50
2018-05-19T18:28:32.736Z,15.53
2018-05-19T18:31:00.931Z,23.37
2018-05-19T18:33:28.366Z,14.80
2018-05-19T18:35:55.818Z,14.23
2018-05-19T18:38:23.270Z,17.63
2018-05-19T18:40:50.718Z,16.03
2018-05-19T18:43:18.166Z,16.20
2018-05-19T18:45:45.626Z,18.27
2018-05-19T18:48:13.082Z,15.80
2018-05-19T18:50:41.342Z,15.27
2018-05-19T18:53:08.806Z,17.43
2018-05-19T18:55:36.277Z,15.90
2018-05-19T18:58:03.740Z,15.67
2018-05-19T19:00:31.182Z,15.97
2018-05-19T19:02:58.626Z,17.07
2018-05-19T19:05:26.083Z,15.97
2018-05-19T19:07:54.294Z,16.20
2018-05-19T19:10:22.388Z,14.03
2018-05-19T19:12:50.744Z,16.50
2018-05-19T19:15:18.190Z,16.40
2018-05-19T19:17:45.714Z,18.07
2018-05-19T19:20:13.155Z,19.20
2018-05-19T19:22:40.595Z,17.90
2018-05-19T19:25:08.084Z,16.27
2018-05-19T19:27:35.591Z,18.00
2018-05-19T19:30:03.038Z,19.47
2018-05-19T19:32:30.621Z,18.70
2018-05-19T19:34:58.738Z,17.73
2018-05-19T19:37:26.209Z,19.73
2018-05-19T19:39:53.816Z,23.20
2018-05-19T19:42:21.258Z,21.30
2018-05-19T19:44:48.800Z,23.00
2018-05-19T19:47:16.274Z,21.63
2018-05-19T19:49:43.752Z,21.97
2018-05-19T19:52:11.166Z,21.83
2018-05-19T19:54:38.616Z,20.30
2018-05-19T19:57:06.066Z,22.33
2018-05-19T19:59:34.265Z,20.73
2018-05-19T20:02:01.734Z,17.50
2018-05-19T20:04:29.497Z,16.90
2018-05-19T20:06:56.952Z,16.70
2018-05-19T20:09:24.410Z,19.50
2018-05-19T20:11:51.858Z,19.67
2018-05-19T20:14:20.092Z,20.33
2018-05-19T20:16:47.533Z,24.63
2018-05-19T20:19:14.971Z,18.10
2018-05-19T20:21:42.411Z,18.27
2018-05-19T20:24:09.846Z,18.30
2018-05-19T20:26:37.299Z,17.60
2018-05-19T20:29:04.730Z,19.73
2018-05-19T20:31:32.190Z,23.00
2018-05-19T20:33:59.633Z,23.27
2018-05-19T20:36:27.090Z,18.07
2018-05-19T20:38:59.078Z,19.77
2018-05-19T20:41:26.527Z,18.90
2018-05-19T20:43:54.019Z,21.77
2018-05-19T20:46:21.439Z,20.20
2018-05-19T20:48:48.894Z,21.50
2018-05-19T20:51:16.402Z,19.53
2018-05-19T20:53:43.853Z,19.83
2018-05-19T20:56:11.308Z,17.30
2018-05-19T20:58:38.742Z,18.87
2018-05-19T21:01:06.194Z,16.87
2018-05-19T21:03:33.633Z,19.03
2018-05-19T21:06:01.094Z,16.90
2018-05-19T21:08:28.555Z,15.60
2018-05-19T21:10:56.762Z,13.67
2018-05-19T21:13:24.234Z,14.27
2018-05-19T21:15:51.674Z,12.80
2018-05-19T21:18:19.122Z,11.90
2018-05-19T21:20:46.578Z,11.40
2018-05-19T21:23:14.022Z,13.50
2018-05-19T21:25:41.493Z,12.87
2018-05-19T21:28:08.940Z,13.50
2018-05-19T21:30:36.427Z,13.40
2018-05-19T21:33:03.862Z,12.00
2018-05-19T21:35:31.318Z,12.97
2018-05-19T21:37:58.773Z,12.60
2018-05-19T21:40:26.222Z,11.57
2018-05-19T21:42:54.422Z,11.77
2018-05-19T21:45:22.659Z,10.77
2018-05-19T21:47:50.103Z,11.50
2018-05-19T21:50:17.558Z,13.20
2018-05-19T21:52:45.002Z,12.93
2018-05-19T21:55:13.326Z,11.80
2018-05-19T21:57:40.793Z,12.67
2018-05-19T22:00:08.227Z,12.10
2018-05-19T22:02:35.690Z,11.73
2018-05-19T22:05:03.147Z,11.77
2018-05-19T22:07:31.438Z,10.30
2018-05-19T22:09:58.803Z,12.37
2018-05-19T22:12:26.247Z,10.93
2018-05-19T22:14:53.694Z,13.10
2018-05-19T22:17:21.150Z,12.23
2018-05-19T22:19:48.657Z,12.00
2018-05-19T22:22:16.147Z,13.97
2018-05-19T22:24:43.583Z,13.40
2018-05-19T22:27:11.027Z,13.50
2018-05-19T22:29:38.507Z,13.37
2018-05-19T22:32:05.955Z,13.73
2018-05-19T22:34:33.458Z,15.53
2018-05-19T22:37:00.908Z,15.30
2018-05-19T22:39:28.369Z,16.70
2018-05-19T22:41:56.570Z,17.03
2018-05-19T22:44:24.018Z,18.20
2018-05-19T22:46:51.555Z,17.83
2018-05-19T22:49:19.000Z,18.30
2018-05-19T22:51:46.460Z,17.97
2018-05-19T22:54:13.899Z,20.07
2018-05-19T22:56:41.382Z,20.07
2018-05-19T22:59:08.941Z,23.23
2018-05-19T23:01:37.178Z,22.17
2018-05-19T23:04:04.880Z,22.93
2018-05-19T23:06:32.393Z,40.27
2018-05-19T23:08:59.844Z,27.83
2018-05-19T23:11:27.324Z,27.40
2018-05-19T23:13:54.769Z,26.03
2018-05-19T23:16:22.269Z,27.30
2018-05-19T23:18:50.548Z,27.33
2018-05-19T23:21:18.002Z,30.10
2018-05-19T23:23:45.482Z,30.93
2018-05-19T23:26:13.739Z,31.67
2018-05-19T23:28:41.174Z,32.00
2018-05-19T23:31:08.632Z,33.53
2018-05-19T23:33:36.625Z,32.50
2018-05-19T23:36:04.071Z,32.30
2018-05-19T23:38:31.514Z,33.20
2018-05-19T23:40:58.958Z,33.20
2018-05-19T23:43:26.417Z,31.50
2018-05-19T23:45:53.872Z,28.87
2018-05-19T23:48:21.329Z,29.37
2018-05-19T23:50:48.785Z,28.63
2018-05-19T23:53:16.232Z,29.50
2018-05-19T23:55:43.678Z,24.60
2018-05-19T23:58:11.128Z,22.80
